Time;durP1;ratioP1;P1;durP2;ratioP2;P2;SDS_P1;SDS_P2;PMS_P1;PMS_P2;Temp;Humidity;BMP_temperature;BMP_pressure;BME280_temperature;BME280_humidity;BME280_pressure;Samples;Min_cycle;Max_cycle;Signal;HPM_P1;HPM_P2
2023/12/03 00:00:30;;;;;;;5.90;3.33;;;-4.00;98.80;;;;;;2040360;28;20608;-66
2023/12/03 00:01:31;;;;;;;5.93;3.67;;;-4.00;98.80;;;;;;2042065;28;20238;-67
2023/12/03 00:02:31;;;;;;;4.67;3.00;;;-4.00;99.10;;;;;;2037537;28;20724;-66
2023/12/03 00:03:33;;;;;;;5.77;3.80;;;-4.00;99.10;;;;;;2037799;28;20743;-67
2023/12/03 00:04:36;;;;;;;5.28;2.78;;;-4.00;99.00;;;;;;2040942;28;20254;-67
2023/12/03 00:05:37;;;;;;;6.65;3.42;;;-4.00;99.30;;;;;;2039122;29;20245;-66
2023/12/03 00:06:38;;;;;;;5.07;3.78;;;-4.00;99.60;;;;;;2045160;28;20730;-66
2023/12/03 00:07:39;;;;;;;6.63;3.93;;;-3.90;99.90;;;;;;2024125;28;20229;-66
2023/12/03 00:08:40;;;;;;;4.80;3.13;;;-4.00;99.90;;;;;;2018316;29;20547;-66
2023/12/03 00:09:41;;;;;;;5.18;3.40;;;-4.00;99.80;;;;;;2018754;28;20232;-67
2023/12/03 00:10:42;;;;;;;8.18;4.30;;;-4.00;99.90;;;;;;2033541;28;20243;-67
2023/12/03 00:11:43;;;;;;;5.07;3.20;;;-3.90;99.80;;;;;;2042301;28;20309;-67
2023/12/03 00:12:44;;;;;;;5.53;3.53;;;-3.90;99.70;;;;;;2034462;28;20713;-66
2023/12/03 00:13:45;;;;;;;7.85;4.35;;;-3.90;99.70;;;;;;2039247;29;20629;-66
2023/12/03 00:14:45;;;;;;;5.57;3.27;;;-3.80;99.50;;;;;;2040494;28;20231;-67
2023/12/03 00:15:46;;;;;;;4.90;3.53;;;-3.80;99.30;;;;;;2023823;28;20243;-66
2023/12/03 00:16:47;;;;;;;5.67;3.30;;;-3.80;99.00;;;;;;2062411;28;20223;-67
2023/12/03 00:17:49;;;;;;;6.40;3.70;;;-3.80;98.90;;;;;;2042927;28;20218;-67
2023/12/03 00:18:50;;;;;;;6.13;3.78;;;-3.70;98.70;;;;;;2039044;29;20221;-67
2023/12/03 00:19:51;;;;;;;6.90;3.83;;;-3.70;98.40;;;;;;2037618;28;20199;-69
2023/12/03 00:20:52;;;;;;;7.03;3.37;;;-3.60;98.40;;;;;;2034279;29;20785;-65
2023/12/03 00:21:53;;;;;;;8.57;4.97;;;-3.60;98.10;;;;;;2042217;28;20668;-66
2023/12/03 00:22:54;;;;;;;7.30;4.07;;;-3.60;98.50;;;;;;2035815;29;20195;-67
2023/12/03 00:23:55;;;;;;;5.82;3.85;;;-3.60;98.60;;;;;;2021480;29;20208;-67
2023/12/03 00:24:56;;;;;;;4.32;3.08;;;-3.60;98.70;;;;;;2036017;29;20281;-66
2023/12/03 00:25:57;;;;;;;7.17;3.97;;;-3.70;98.60;;;;;;2048319;28;20192;-66
2023/12/03 00:26:59;;;;;;;3.85;3.42;;;-3.70;98.60;;;;;;2056317;28;20205;-65
2023/12/03 00:27:59;;;;;;;4.85;3.40;;;-3.70;98.40;;;;;;2041827;28;20261;-65
2023/12/03 00:29:00;;;;;;;5.23;3.43;;;-3.60;98.70;;;;;;2032950;29;20196;-65
2023/12/03 00:30:03;;;;;;;7.60;4.57;;;-3.60;98.10;;;;;;2052028;28;20205;-68
2023/12/03 00:31:04;;;;;;;7.05;3.85;;;-3.70;98.30;;;;;;2070915;28;20346;-65
2023/12/03 00:32:05;;;;;;;5.30;3.47;;;-3.60;98.40;;;;;;2075495;28;20201;-65
2023/12/03 00:33:06;;;;;;;5.40;3.47;;;-3.60;98.00;;;;;;2067693;28;20201;-65
2023/12/03 00:34:07;;;;;;;5.93;3.40;;;-3.60;97.80;;;;;;2066784;28;20303;-65
2023/12/03 00:35:09;;;;;;;6.47;3.70;;;-3.60;97.70;;;;;;2075363;28;20330;-65
2023/12/03 00:36:10;;;;;;;7.18;3.97;;;-3.50;97.90;;;;;;2074321;28;20773;-65
2023/12/03 00:37:11;;;;;;;4.78;3.92;;;-3.60;97.90;;;;;;2073169;28;20240;-65
2023/12/03 00:38:12;;;;;;;6.40;4.17;;;-3.60;98.20;;;;;;2074712;28;20608;-66
2023/12/03 00:39:13;;;;;;;5.93;4.03;;;-3.50;99.20;;;;;;2066457;28;20246;-66
2023/12/03 00:40:14;;;;;;;8.40;3.70;;;-3.60;99.90;;;;;;2074283;28;20224;-66
2023/12/03 00:41:14;;;;;;;6.63;4.37;;;-3.70;99.90;;;;;;2074636;28;20238;-65
2023/12/03 00:42:15;;;;;;;5.97;3.10;;;-3.70;99.90;;;;;;2074398;28;20235;-65
2023/12/03 00:43:16;;;;;;;7.10;4.00;;;-3.70;99.90;;;;;;2075463;28;20605;-65
2023/12/03 00:44:18;;;;;;;5.77;4.00;;;-3.70;99.90;;;;;;2066608;28;20276;-66
2023/12/03 00:45:18;;;;;;;6.18;4.18;;;-3.60;99.90;;;;;;2065903;28;20320;-65
2023/12/03 00:46:20;;;;;;;6.20;4.00;;;-3.60;99.90;;;;;;2075394;28;20240;-65
2023/12/03 00:47:21;;;;;;;7.15;4.38;;;-3.60;99.90;;;;;;2074548;28;20237;-65
2023/12/03 00:48:22;;;;;;;7.03;3.87;;;-3.50;99.90;;;;;;2074646;28;20224;-65
2023/12/03 00:49:23;;;;;;;5.00;3.67;;;-3.50;99.90;;;;;;2082951;28;20315;-66
2023/12/03 00:50:23;;;;;;;5.27;3.37;;;-3.50;99.80;;;;;;2075737;28;20320;-66
2023/12/03 00:51:24;;;;;;;7.27;4.27;;;-3.50;99.50;;;;;;2054664;28;20637;-66
2023/12/03 00:52:25;;;;;;;7.03;4.40;;;-3.50;99.40;;;;;;2039819;29;20242;-65
2023/12/03 00:53:26;;;;;;;7.43;3.88;;;-3.50;99.50;;;;;;2041600;28;20242;-66
2023/12/03 00:54:27;;;;;;;6.13;4.00;;;-3.50;99.50;;;;;;2041043;28;20266;-65
2023/12/03 00:55:27;;;;;;;6.87;4.17;;;-3.50;99.40;;;;;;2041819;28;20690;-66
2023/12/03 00:56:28;;;;;;;5.37;3.43;;;-3.60;99.30;;;;;;2034667;28;20236;-65
2023/12/03 00:57:30;;;;;;;6.83;3.57;;;-3.50;99.20;;;;;;2034805;29;20297;-65
2023/12/03 00:58:31;;;;;;;7.18;4.45;;;-3.50;98.90;;;;;;2040487;28;20835;-65
2023/12/03 00:59:32;;;;;;;6.00;4.00;;;-3.50;99.30;;;;;;2042608;28;20305;-65
2023/12/03 01:00:33;;;;;;;8.00;4.73;;;-3.60;99.60;;;;;;2029143;28;20240;-65
2023/12/03 01:01:33;;;;;;;5.50;3.70;;;-3.70;99.60;;;;;;2029444;28;20655;-65
2023/12/03 01:02:35;;;;;;;6.10;4.00;;;-3.70;99.70;;;;;;2043354;28;20321;-66
2023/12/03 01:03:36;;;;;;;7.82;4.15;;;-3.70;99.60;;;;;;2043374;28;20731;-65
2023/12/03 01:04:37;;;;;;;6.40;4.50;;;-3.60;99.50;;;;;;2042818;29;20234;-66
2023/12/03 01:05:37;;;;;;;5.80;3.40;;;-3.60;99.30;;;;;;2040621;28;20607;-66
2023/12/03 01:06:38;;;;;;;6.50;3.60;;;-3.50;99.20;;;;;;2043081;28;20516;-67
2023/12/03 01:07:39;;;;;;;7.23;4.00;;;-3.50;98.90;;;;;;2043051;28;20314;-65
2023/12/03 01:08:39;;;;;;;7.40;4.13;;;-3.40;99.10;;;;;;2043841;28;20220;-65
2023/12/03 01:09:42;;;;;;;8.17;4.23;;;-3.50;99.30;;;;;;2040418;28;20232;-65
2023/12/03 01:10:42;;;;;;;5.90;4.00;;;-3.60;99.50;;;;;;2039245;28;20228;-65
2023/12/03 01:11:43;;;;;;;7.10;3.77;;;-3.60;99.40;;;;;;2056038;28;20225;-66
2023/12/03 01:12:44;;;;;;;6.37;3.97;;;-3.60;99.40;;;;;;2050262;28;20233;-65
2023/12/03 01:13:44;;;;;;;5.07;3.77;;;-3.50;99.40;;;;;;2046912;29;20819;-66
2023/12/03 01:14:45;;;;;;;8.73;4.40;;;-3.50;99.30;;;;;;2048888;28;20262;-65
2023/12/03 01:15:48;;;;;;;5.07;3.80;;;-3.50;99.10;;;;;;2031292;29;20279;-67
2023/12/03 01:16:48;;;;;;;6.22;3.60;;;-3.40;99.20;;;;;;2035175;28;20229;-66
2023/12/03 01:17:49;;;;;;;6.83;4.40;;;-3.30;99.10;;;;;;2036896;28;20227;-65
2023/12/03 01:18:50;;;;;;;6.03;3.50;;;-3.40;98.90;;;;;;2033754;29;20282;-65
2023/12/03 01:19:50;;;;;;;4.43;3.23;;;-3.30;98.90;;;;;;2048634;28;20577;-65
2023/12/03 01:20:51;;;;;;;4.63;3.10;;;-3.40;98.80;;;;;;2080678;28;20209;-66
2023/12/03 01:21:52;;;;;;;5.68;3.90;;;-3.50;98.80;;;;;;2041411;28;20211;-65
2023/12/03 01:22:54;;;;;;;5.53;4.23;;;-3.50;99.10;;;;;;2045919;28;20645;-66
2023/12/03 01:23:55;;;;;;;7.70;4.75;;;-3.70;99.10;;;;;;2046731;28;20692;-65
2023/12/03 01:24:56;;;;;;;7.80;4.65;;;-3.80;99.40;;;;;;2043181;28;20722;-65
2023/12/03 01:25:56;;;;;;;6.70;4.17;;;-3.90;99.80;;;;;;2051838;28;20238;-66
2023/12/03 01:26:57;;;;;;;8.60;5.00;;;-4.00;99.90;;;;;;2043664;28;20653;-66
2023/12/03 01:27:58;;;;;;;6.20;4.20;;;-4.00;99.90;;;;;;2021004;29;20208;-65
2023/12/03 01:28:59;;;;;;;4.90;3.53;;;-4.10;99.90;;;;;;2020551;29;20827;-65
2023/12/03 01:29:59;;;;;;;7.63;4.13;;;-4.20;99.90;;;;;;2026928;29;20334;-66
2023/12/03 01:31:00;;;;;;;7.30;4.83;;;-4.20;99.90;;;;;;2078587;28;20243;-65
2023/12/03 01:32:01;;;;;;;6.80;3.73;;;-4.10;99.90;;;;;;2068755;28;20214;-65
2023/12/03 01:33:01;;;;;;;6.77;3.90;;;-4.10;99.90;;;;;;2028626;29;20757;-65
2023/12/03 01:34:02;;;;;;;7.67;4.20;;;-4.00;99.90;;;;;;2042315;28;20309;-65
2023/12/03 01:35:03;;;;;;;6.30;3.83;;;-4.00;99.90;;;;;;2042537;29;20206;-65
2023/12/03 01:36:04;;;;;;;6.22;4.07;;;-4.00;99.90;;;;;;2078815;28;20203;-65
2023/12/03 01:37:05;;;;;;;5.68;3.63;;;-4.00;99.90;;;;;;2075880;28;20601;-66
2023/12/03 01:38:06;;;;;;;5.20;3.63;;;-4.00;99.90;;;;;;2083892;28;20213;-66
2023/12/03 01:39:08;;;;;;;4.37;2.60;;;-4.00;99.90;;;;;;2093973;28;20242;-66
2023/12/03 01:40:09;;;;;;;5.72;3.25;;;-4.00;99.90;;;;;;2050007;28;20222;-65
2023/12/03 01:41:10;;;;;;;5.18;3.65;;;-4.00;99.90;;;;;;2043716;28;20234;-66
2023/12/03 01:42:13;;;;;;;5.40;3.33;;;-4.10;99.90;;;;;;2049519;28;20230;-65
2023/12/03 01:43:13;;;;;;;6.63;4.32;;;-4.10;99.90;;;;;;2038761;28;20375;-65
2023/12/03 01:44:14;;;;;;;5.20;3.30;;;-4.00;99.90;;;;;;2042303;28;20266;-66
2023/12/03 01:45:15;;;;;;;6.07;3.80;;;-4.00;99.90;;;;;;2043426;28;20314;-66
2023/12/03 01:46:16;;;;;;;6.03;3.73;;;-4.00;99.90;;;;;;2042997;28;20259;-65
2023/12/03 01:47:17;;;;;;;6.40;3.67;;;-4.00;99.90;;;;;;2034133;28;20228;-65
2023/12/03 01:48:18;;;;;;;5.68;3.45;;;-4.00;99.90;;;;;;2043138;28;20672;-65
2023/12/03 01:49:19;;;;;;;6.30;3.95;;;-4.00;99.90;;;;;;2049616;28;20235;-65
2023/12/03 01:50:20;;;;;;;6.87;3.53;;;-4.00;99.90;;;;;;2047210;28;20317;-65
2023/12/03 01:51:22;;;;;;;6.43;3.85;;;-4.00;99.90;;;;;;2055412;28;20229;-66
2023/12/03 01:52:23;;;;;;;6.28;4.05;;;-4.00;99.90;;;;;;2080318;28;20238;-66
2023/12/03 01:53:24;;;;;;;5.57;3.85;;;-4.00;99.90;;;;;;2064862;28;20315;-66
2023/12/03 01:54:28;;;;;;;5.85;3.65;;;-4.00;99.90;;;;;;2052916;28;20236;-65
2023/12/03 01:55:29;;;;;;;7.00;3.92;;;-4.00;99.90;;;;;;2063136;28;20233;-65
2023/12/03 01:56:30;;;;;;;6.27;4.43;;;-4.00;99.90;;;;;;2077530;28;20239;-65
2023/12/03 01:57:31;;;;;;;7.30;3.80;;;-4.10;99.90;;;;;;2051116;28;20475;-65
2023/12/03 01:58:32;;;;;;;6.63;3.97;;;-4.00;99.90;;;;;;2043495;28;20239;-65
2023/12/03 01:59:33;;;;;;;7.10;4.32;;;-4.00;99.90;;;;;;2043985;28;20309;-66
2023/12/03 02:00:34;;;;;;;6.03;3.13;;;-3.90;99.90;;;;;;2059723;28;20223;-64
2023/12/03 02:01:34;;;;;;;6.13;4.20;;;-3.90;99.90;;;;;;2047568;28;20245;-65
2023/12/03 02:02:35;;;;;;;6.23;3.63;;;-4.00;99.90;;;;;;2040342;28;20231;-65
2023/12/03 02:03:36;;;;;;;6.10;3.55;;;-4.10;99.90;;;;;;2040460;28;20233;-66
2023/12/03 02:04:39;;;;;;;5.23;3.60;;;-4.10;99.90;;;;;;2050814;28;20225;-66
2023/12/03 02:05:39;;;;;;;4.70;2.88;;;-4.20;99.90;;;;;;2044906;28;20228;-65
2023/12/03 02:06:40;;;;;;;6.30;3.83;;;-4.20;99.90;;;;;;2048153;28;20416;-65
2023/12/03 02:07:41;;;;;;;6.97;3.97;;;-4.10;99.90;;;;;;2056693;28;20230;-65
2023/12/03 02:08:42;;;;;;;6.23;3.77;;;-4.10;99.90;;;;;;2041725;28;20320;-66
2023/12/03 02:09:44;;;;;;;8.55;4.22;;;-4.10;99.90;;;;;;2041826;28;20622;-65
2023/12/03 02:10:45;;;;;;;6.32;3.85;;;-4.10;99.90;;;;;;2042683;28;20229;-65
2023/12/03 02:11:46;;;;;;;6.10;3.83;;;-4.20;99.90;;;;;;2041876;29;20267;-64
2023/12/03 02:12:47;;;;;;;5.07;3.25;;;-4.30;99.90;;;;;;2036384;28;20644;-65
2023/12/03 02:13:48;;;;;;;5.47;3.78;;;-4.50;99.90;;;;;;2033719;29;20231;-66
2023/12/03 02:14:49;;;;;;;5.88;3.55;;;-4.50;99.90;;;;;;2049658;28;21016;-66
2023/12/03 02:15:50;;;;;;;6.73;4.00;;;-4.50;99.90;;;;;;2046883;28;20222;-68
2023/12/03 02:16:51;;;;;;;5.88;3.80;;;-4.50;99.90;;;;;;2045131;28;20259;-66
2023/12/03 02:17:52;;;;;;;6.00;3.70;;;-4.60;99.90;;;;;;2055140;28;20185;-65
2023/12/03 02:18:52;;;;;;;6.65;3.92;;;-4.70;99.90;;;;;;2058337;28;20645;-65
2023/12/03 02:19:54;;;;;;;6.50;3.30;;;-4.70;99.90;;;;;;2042734;28;20212;-65
2023/12/03 02:20:55;;;;;;;6.15;3.97;;;-4.70;99.90;;;;;;2034307;28;20552;-65
2023/12/03 02:21:56;;;;;;;6.13;4.17;;;-4.70;99.90;;;;;;2041249;28;20208;-65
2023/12/03 02:23:00;;;;;;;6.13;4.00;;;-4.70;99.90;;;;;;2042929;28;20200;-65
2023/12/03 02:24:01;;;;;;;5.82;3.80;;;-4.70;99.90;;;;;;2042930;28;20201;-65
2023/12/03 02:25:02;;;;;;;7.75;4.13;;;-4.70;99.90;;;;;;2043130;28;20686;-65
2023/12/03 02:26:03;;;;;;;8.17;4.10;;;-4.80;99.90;;;;;;2041188;28;20196;-65
2023/12/03 02:27:06;;;;;;;7.15;4.50;;;-4.70;99.90;;;;;;2076080;28;20499;-66
2023/12/03 02:28:07;;;;;;;7.32;4.05;;;-4.80;99.90;;;;;;2091615;28;20608;-65
2023/12/03 02:29:07;;;;;;;8.10;4.73;;;-4.80;99.90;;;;;;2057643;28;20263;-65
2023/12/03 02:30:08;;;;;;;7.77;4.23;;;-5.00;99.90;;;;;;2092557;28;20580;-65
2023/12/03 02:31:09;;;;;;;6.82;4.05;;;-5.10;99.90;;;;;;2075528;28;20291;-65
2023/12/03 02:32:10;;;;;;;5.80;3.50;;;-5.10;99.90;;;;;;2033090;28;20240;-64
2023/12/03 02:33:11;;;;;;;7.67;4.87;;;-5.10;99.90;;;;;;2042228;28;20626;-65
2023/12/03 02:34:14;;;;;;;8.07;4.10;;;-5.10;99.90;;;;;;2055259;28;20230;-65
2023/12/03 02:35:15;;;;;;;8.52;4.90;;;-5.20;99.90;;;;;;2056395;28;20579;-65
2023/12/03 02:36:16;;;;;;;8.40;4.68;;;-5.20;99.90;;;;;;2036481;28;20351;-65
2023/12/03 02:37:17;;;;;;;7.72;5.22;;;-5.20;99.90;;;;;;2038139;28;20746;-65
2023/12/03 02:38:17;;;;;;;6.83;4.20;;;-5.20;99.90;;;;;;2057460;28;20242;-65
2023/12/03 02:39:18;;;;;;;6.00;4.37;;;-5.30;99.90;;;;;;2065002;28;20668;-64
2023/12/03 02:40:19;;;;;;;7.17;4.13;;;-5.30;99.90;;;;;;2051311;28;20235;-65
2023/12/03 02:41:19;;;;;;;5.57;3.90;;;-5.40;99.90;;;;;;2038100;28;20703;-65
2023/12/03 02:42:21;;;;;;;5.40;4.53;;;-5.50;99.90;;;;;;2042073;28;20231;-65
2023/12/03 02:43:22;;;;;;;7.38;4.53;;;-5.50;99.90;;;;;;2042711;28;20268;-66
2023/12/03 02:44:23;;;;;;;8.27;4.53;;;-5.60;99.90;;;;;;2052982;28;20601;-66
2023/12/03 02:45:23;;;;;;;7.50;4.50;;;-5.70;99.90;;;;;;2061822;28;20239;-65
2023/12/03 02:46:24;;;;;;;5.10;3.20;;;-5.70;99.90;;;;;;2042862;28;20232;-65
2023/12/03 02:47:25;;;;;;;7.73;4.60;;;-5.70;99.90;;;;;;2036379;29;20239;-65
2023/12/03 02:48:25;;;;;;;7.33;4.77;;;-5.70;99.90;;;;;;2034233;29;20467;-65
2023/12/03 02:49:26;;;;;;;9.73;5.13;;;-5.70;99.90;;;;;;2031336;29;20360;-65
2023/12/03 02:50:27;;;;;;;5.77;3.77;;;-5.80;99.90;;;;;;2026133;29;20236;-65
2023/12/03 02:51:28;;;;;;;5.93;3.40;;;-5.80;99.90;;;;;;2039411;29;20238;-65
2023/12/03 02:52:28;;;;;;;7.32;4.28;;;-5.90;99.90;;;;;;2042351;28;20260;-65
2023/12/03 02:53:31;;;;;;;7.77;4.27;;;-5.90;99.90;;;;;;2041174;28;20239;-66
2023/12/03 02:54:31;;;;;;;6.88;4.10;;;-5.90;99.90;;;;;;2041447;28;20256;-65
2023/12/03 02:55:32;;;;;;;7.70;4.33;;;-6.00;99.90;;;;;;2042217;28;20239;-65
2023/12/03 02:56:33;;;;;;;7.93;4.63;;;-6.00;99.90;;;;;;2041975;28;20780;-65
2023/12/03 02:57:36;;;;;;;9.73;4.17;;;-6.10;99.90;;;;;;2044164;28;20698;-65
2023/12/03 02:58:37;;;;;;;8.20;4.15;;;-6.10;99.90;;;;;;2026387;29;20226;-65
2023/12/03 02:59:38;;;;;;;7.23;4.47;;;-6.10;99.90;;;;;;2034337;29;20229;-66
2023/12/03 03:00:40;;;;;;;7.13;4.30;;;-6.20;99.90;;;;;;2041520;28;20474;-65
2023/12/03 03:01:41;;;;;;;9.23;4.95;;;-6.20;99.90;;;;;;2041162;28;20602;-65
2023/12/03 03:02:43;;;;;;;9.75;5.10;;;-6.20;99.90;;;;;;2041541;28;20224;-65
2023/12/03 03:03:43;;;;;;;9.68;4.38;;;-6.20;99.90;;;;;;2059023;28;20246;-65
2023/12/03 03:04:45;;;;;;;8.80;4.63;;;-6.20;99.90;;;;;;2060220;28;20733;-65
2023/12/03 03:05:46;;;;;;;10.35;4.55;;;-6.20;99.90;;;;;;2041443;28;20231;-65
2023/12/03 03:06:47;;;;;;;8.67;4.80;;;-6.30;99.90;;;;;;2034290;29;20228;-65
2023/12/03 03:07:48;;;;;;;10.15;4.88;;;-6.30;99.90;;;;;;2041255;28;20285;-65
2023/12/03 03:08:49;;;;;;;8.30;5.20;;;-6.40;99.90;;;;;;2024156;28;20439;-66
2023/12/03 03:09:50;;;;;;;8.40;4.78;;;-6.40;99.90;;;;;;2034047;28;20201;-65
2023/12/03 03:10:51;;;;;;;7.00;4.30;;;-6.50;99.90;;;;;;2070316;28;20212;-64
2023/12/03 03:11:54;;;;;;;14.83;5.83;;;-6.50;99.90;;;;;;2036321;29;20186;-65
2023/12/03 03:12:55;;;;;;;8.05;4.40;;;-6.60;99.90;;;;;;2057696;28;20193;-65
2023/12/03 03:13:55;;;;;;;8.87;5.20;;;-6.60;99.90;;;;;;2053737;28;20199;-66
2023/12/03 03:14:56;;;;;;;9.87;5.27;;;-6.60;99.90;;;;;;2089911;28;20208;-65
2023/12/03 03:15:57;;;;;;;7.77;4.20;;;-6.60;99.90;;;;;;2089643;28;20243;-66
2023/12/03 03:16:57;;;;;;;9.67;5.40;;;-6.60;99.90;;;;;;2049420;28;20271;-65
2023/12/03 03:17:58;;;;;;;7.93;5.00;;;-6.70;99.90;;;;;;2040860;29;20201;-66
2023/12/03 03:18:59;;;;;;;10.03;5.00;;;-6.70;99.90;;;;;;2041076;28;20186;-65
2023/12/03 03:19:59;;;;;;;7.77;4.67;;;-6.70;99.90;;;;;;2045827;28;20614;-66
2023/12/03 03:21:02;;;;;;;7.17;4.53;;;-6.80;99.90;;;;;;2043620;28;20842;-66
2023/12/03 03:22:03;;;;;;;10.02;5.40;;;-6.80;99.90;;;;;;2041534;28;20179;-66
2023/12/03 03:23:04;;;;;;;6.38;4.15;;;-6.80;99.90;;;;;;2034228;29;20335;-66
2023/12/03 03:24:05;;;;;;;8.20;5.00;;;-6.80;99.90;;;;;;2048945;28;20253;-66
2023/12/03 03:25:07;;;;;;;7.88;5.00;;;-6.80;99.90;;;;;;2024403;28;20691;-68
2023/12/03 03:26:10;;;;;;;11.07;5.65;;;-6.90;99.90;;;;;;2060959;28;20233;-66
2023/12/03 03:27:11;;;;;;;7.97;4.13;;;-7.00;99.90;;;;;;2046259;28;20335;-65
2023/12/03 03:28:12;;;;;;;8.83;5.23;;;-7.00;99.90;;;;;;2041500;28;20674;-66
2023/12/03 03:29:12;;;;;;;10.13;5.13;;;-7.00;99.90;;;;;;2041495;28;20316;-66
2023/12/03 03:30:14;;;;;;;8.50;5.20;;;-6.90;99.90;;;;;;2041683;28;20234;-66
2023/12/03 03:31:14;;;;;;;7.38;4.88;;;-7.00;99.90;;;;;;2034285;28;20232;-66
2023/12/03 03:32:16;;;;;;;8.13;5.20;;;-7.10;99.90;;;;;;2044561;28;20729;-66
2023/12/03 03:33:16;;;;;;;9.20;4.80;;;-7.10;99.90;;;;;;2054147;28;20232;-66
2023/12/03 03:34:17;;;;;;;6.47;4.33;;;-7.10;99.90;;;;;;2033265;28;20232;-65
2023/12/03 03:35:18;;;;;;;9.77;5.17;;;-7.10;99.90;;;;;;2042055;28;20248;-68
2023/12/03 03:36:18;;;;;;;8.60;5.30;;;-7.20;99.90;;;;;;2057057;28;20239;-66
2023/12/03 03:37:21;;;;;;;9.27;5.63;;;-7.30;99.90;;;;;;2040976;28;20248;-65
2023/12/03 03:38:22;;;;;;;9.18;5.40;;;-7.20;99.90;;;;;;2041199;28;20284;-66
2023/12/03 03:39:23;;;;;;;11.02;6.18;;;-7.20;99.90;;;;;;2041383;28;20236;-66
2023/12/03 03:40:24;;;;;;;7.10;4.60;;;-7.20;99.90;;;;;;2033032;28;20232;-66
2023/12/03 03:41:24;;;;;;;8.17;5.03;;;-7.30;99.90;;;;;;2041800;28;20723;-66
2023/12/03 03:42:25;;;;;;;8.50;4.47;;;-7.30;99.90;;;;;;2049360;28;20311;-66
2023/12/03 03:43:26;;;;;;;8.13;4.67;;;-7.30;99.90;;;;;;2041469;28;20233;-66
2023/12/03 03:44:26;;;;;;;6.60;3.97;;;-7.30;99.90;;;;;;2041566;28;20234;-66
2023/12/03 03:45:27;;;;;;;8.23;4.63;;;-7.20;99.90;;;;;;2041315;28;20220;-66
2023/12/03 03:46:28;;;;;;;8.57;4.27;;;-7.30;99.90;;;;;;2034259;29;20233;-66
2023/12/03 03:47:28;;;;;;;8.83;4.93;;;-7.30;99.90;;;;;;2040411;29;20319;-66
2023/12/03 03:48:30;;;;;;;8.27;5.20;;;-7.20;99.90;;;;;;2042707;28;20246;-66
2023/12/03 03:49:30;;;;;;;8.55;4.80;;;-7.40;99.90;;;;;;2031137;28;20248;-66
2023/12/03 03:50:31;;;;;;;8.10;4.63;;;-7.40;99.90;;;;;;2021339;28;20265;-66
2023/12/03 03:51:32;;;;;;;9.27;5.07;;;-7.40;99.90;;;;;;2029295;29;20251;-66
2023/12/03 03:52:34;;;;;;;9.57;4.87;;;-7.40;99.90;;;;;;2032627;28;20293;-66
2023/12/03 03:53:35;;;;;;;10.52;5.32;;;-7.40;99.90;;;;;;2033415;28;20765;-65
2023/12/03 03:54:41;;;;;;;9.47;4.40;;;-7.40;99.90;;;;;;2045840;28;20232;-66
2023/12/03 03:55:42;;;;;;;7.68;4.55;;;-7.50;99.90;;;;;;2044469;28;20243;-66
2023/12/03 03:56:49;;;;;;;9.20;4.83;;;-7.50;99.90;;;;;;2038271;28;20235;-66
2023/12/03 03:57:50;;;;;;;7.10;3.92;;;-7.40;99.90;;;;;;2020174;29;20241;-66
2023/12/03 03:58:52;;;;;;;9.47;4.70;;;-7.40;99.90;;;;;;2059390;28;20212;-66
2023/12/03 03:59:53;;;;;;;11.55;4.90;;;-7.50;99.90;;;;;;2083406;28;20187;-64
2023/12/03 04:00:54;;;;;;;8.02;4.97;;;-7.50;99.90;;;;;;2052985;28;20249;-64
2023/12/03 04:01:56;;;;;;;8.10;4.80;;;-7.50;99.90;;;;;;2053532;28;20194;-66
2023/12/03 04:02:57;;;;;;;9.60;4.95;;;-7.50;99.90;;;;;;2057873;28;20193;-65
2023/12/03 04:03:58;;;;;;;7.25;4.95;;;-7.50;99.90;;;;;;2041420;28;20210;-65
2023/12/03 04:04:58;;;;;;;7.93;4.63;;;-7.50;99.90;;;;;;2040940;28;20230;-64
2023/12/03 04:06:00;;;;;;;9.23;4.57;;;-7.60;99.90;;;;;;2043076;28;20199;-65
2023/12/03 04:07:01;;;;;;;8.48;4.55;;;-7.70;99.90;;;;;;2049980;28;20679;-65
2023/12/03 04:08:02;;;;;;;8.93;4.47;;;-7.70;99.90;;;;;;2038925;28;20256;-65
2023/12/03 04:09:03;;;;;;;8.03;4.90;;;-7.90;99.90;;;;;;2034023;28;20313;-65
2023/12/03 04:10:05;;;;;;;11.10;4.87;;;-7.90;99.90;;;;;;2041583;28;20215;-64
2023/12/03 04:11:06;;;;;;;7.38;4.30;;;-7.80;99.90;;;;;;2041867;28;20215;-64
2023/12/03 04:12:06;;;;;;;10.20;5.18;;;-7.90;99.90;;;;;;2093454;28;20190;-65
2023/12/03 04:13:07;;;;;;;7.50;4.43;;;-8.00;99.90;;;;;;2085074;28;20286;-65
2023/12/03 04:14:13;;;;;;;9.93;4.93;;;-7.90;99.90;;;;;;2030882;29;20245;-64
2023/12/03 04:15:16;;;;;;;7.45;4.70;;;-8.00;99.90;;;;;;2029739;29;20236;-65
2023/12/03 04:16:22;;;;;;;10.18;5.32;;;-7.90;99.90;;;;;;2033292;28;20241;-65
2023/12/03 04:17:23;;;;;;;11.23;5.85;;;-8.00;99.90;;;;;;2036898;29;20231;-64
2023/12/03 04:18:24;;;;;;;10.50;4.90;;;-8.10;99.90;;;;;;2041216;29;20500;-65
2023/12/03 04:19:25;;;;;;;7.85;4.65;;;-8.10;99.90;;;;;;2041463;28;20239;-64
2023/12/03 04:20:26;;;;;;;8.40;3.97;;;-8.10;99.90;;;;;;2036576;29;20236;-65
2023/12/03 04:21:28;;;;;;;9.07;4.70;;;-8.10;99.90;;;;;;2033656;29;20240;-65
2023/12/03 04:22:31;;;;;;;10.90;5.68;;;-8.10;99.90;;;;;;2033480;29;20881;-65
2023/12/03 04:23:32;;;;;;;9.57;5.03;;;-8.10;99.90;;;;;;2031063;28;20239;-65
2023/12/03 04:24:33;;;;;;;4.85;3.55;;;-8.10;99.90;;;;;;2039236;29;20239;-65
2023/12/03 04:25:34;;;;;;;7.73;4.93;;;-8.10;99.90;;;;;;2037570;28;20707;-65
2023/12/03 04:26:35;;;;;;;8.73;4.60;;;-8.10;99.90;;;;;;2035685;28;20233;-64
2023/12/03 04:27:36;;;;;;;11.15;5.25;;;-8.00;99.90;;;;;;2050297;28;20255;-65
2023/12/03 04:28:40;;;;;;;7.40;4.10;;;-8.00;99.90;;;;;;2035005;28;20611;-65
2023/12/03 04:29:41;;;;;;;8.32;4.28;;;-8.00;99.90;;;;;;2047928;28;20231;-66
2023/12/03 04:30:41;;;;;;;7.10;4.30;;;-8.00;99.90;;;;;;2060478;28;20258;-66
2023/12/03 04:31:43;;;;;;;7.78;4.53;;;-8.10;99.90;;;;;;2039622;28;20227;-66
2023/12/03 04:32:44;;;;;;;7.38;4.05;;;-8.00;99.90;;;;;;2035030;28;20290;-66
2023/12/03 04:33:46;;;;;;;10.20;5.73;;;-8.00;99.90;;;;;;2041484;28;20232;-65
2023/12/03 04:34:46;;;;;;;9.73;5.38;;;-8.10;99.90;;;;;;2042958;28;20235;-66
2023/12/03 04:35:48;;;;;;;7.97;4.40;;;-8.10;99.90;;;;;;2080290;28;20713;-67
2023/12/03 04:36:50;;;;;;;8.60;4.70;;;-8.10;99.90;;;;;;2049579;28;20200;-66
2023/12/03 04:37:51;;;;;;;10.52;4.35;;;-8.20;99.90;;;;;;2037352;28;20283;-66
2023/12/03 04:38:53;;;;;;;6.00;4.07;;;-8.20;99.90;;;;;;2042234;28;20187;-66
2023/12/03 04:39:54;;;;;;;12.20;5.10;;;-8.20;99.90;;;;;;2060557;28;20191;-66
2023/12/03 04:40:55;;;;;;;9.43;4.83;;;-8.20;99.90;;;;;;2060466;28;20577;-64
2023/12/03 04:41:56;;;;;;;8.57;4.87;;;-8.30;99.90;;;;;;2086023;28;20185;-66
2023/12/03 04:42:56;;;;;;;7.68;4.70;;;-8.40;99.90;;;;;;2084915;28;20187;-66
2023/12/03 04:43:57;;;;;;;7.13;4.93;;;-8.40;99.90;;;;;;2042064;28;20282;-66
2023/12/03 04:44:58;;;;;;;10.43;5.03;;;-8.40;99.90;;;;;;2036689;28;20242;-66
2023/12/03 04:46:06;;;;;;;10.03;5.27;;;-8.30;99.90;;;;;;2043093;28;20730;-66
2023/12/03 04:47:07;;;;;;;11.00;5.43;;;-8.30;99.90;;;;;;2042433;28;20223;-66
2023/12/03 04:48:08;;;;;;;7.23;4.10;;;-8.30;99.90;;;;;;2041849;28;20239;-66
2023/12/03 04:49:09;;;;;;;7.63;4.63;;;-8.30;99.90;;;;;;2038157;28;20294;-65
2023/12/03 04:50:10;;;;;;;8.67;4.40;;;-8.30;99.90;;;;;;2054709;28;20226;-66
2023/12/03 04:51:13;;;;;;;6.67;3.60;;;-8.50;99.90;;;;;;2078206;28;20241;-66
2023/12/03 04:52:14;;;;;;;7.38;4.25;;;-8.40;99.90;;;;;;2076301;28;20233;-66
2023/12/03 04:53:14;;;;;;;7.83;4.13;;;-8.40;99.90;;;;;;2049625;28;20668;-66
2023/12/03 04:54:15;;;;;;;7.77;4.17;;;-8.40;99.90;;;;;;2043570;28;20233;-65
2023/12/03 04:55:16;;;;;;;7.70;4.73;;;-8.40;99.90;;;;;;2053570;28;20242;-66
2023/12/03 04:56:16;;;;;;;8.43;4.50;;;-8.30;99.90;;;;;;2044491;28;20235;-66
2023/12/03 04:57:17;;;;;;;6.77;4.00;;;-8.30;99.90;;;;;;2042103;28;20367;-65
2023/12/03 04:58:18;;;;;;;7.93;4.50;;;-8.30;99.90;;;;;;2041669;28;20783;-68
2023/12/03 04:59:18;;;;;;;8.73;4.67;;;-8.30;99.90;;;;;;2042007;28;20233;-65
2023/12/03 05:00:19;;;;;;;9.03;4.53;;;-8.40;99.90;;;;;;2034857;28;20307;-65
2023/12/03 05:01:20;;;;;;;7.77;4.43;;;-8.40;99.90;;;;;;2044364;28;20317;-65
2023/12/03 05:02:21;;;;;;;7.77;4.13;;;-8.50;99.90;;;;;;2070619;28;20226;-66
2023/12/03 05:03:22;;;;;;;7.30;3.80;;;-8.50;99.90;;;;;;2058373;28;20660;-66
2023/12/03 05:04:25;;;;;;;8.35;4.45;;;-8.50;99.90;;;;;;2026804;28;20233;-65
2023/12/03 05:05:26;;;;;;;7.50;4.25;;;-8.50;99.90;;;;;;2020635;29;20232;-66
2023/12/03 05:06:26;;;;;;;10.63;6.13;;;-8.50;99.90;;;;;;2038445;28;20815;-66
2023/12/03 05:07:27;;;;;;;7.53;4.77;;;-8.50;99.90;;;;;;2040974;28;20239;-66
2023/12/03 05:08:28;;;;;;;7.80;4.30;;;-8.50;99.90;;;;;;2042428;28;20862;-66
2023/12/03 05:09:28;;;;;;;10.37;5.23;;;-8.50;99.90;;;;;;2042028;28;20228;-65
2023/12/03 05:10:29;;;;;;;8.40;5.20;;;-8.50;99.90;;;;;;2040156;29;20269;-66
2023/12/03 05:11:30;;;;;;;7.83;4.33;;;-8.60;99.90;;;;;;2032401;29;20240;-65
2023/12/03 05:12:30;;;;;;;13.33;4.47;;;-8.60;99.90;;;;;;2040570;29;20334;-66
2023/12/03 05:13:32;;;;;;;5.73;3.40;;;-8.70;99.90;;;;;;2041820;28;20243;-66
2023/12/03 05:14:33;;;;;;;9.45;4.72;;;-8.70;99.90;;;;;;2033305;28;20227;-66
2023/12/03 05:15:34;;;;;;;9.05;5.45;;;-8.70;99.90;;;;;;2034325;28;20686;-66
2023/12/03 05:16:35;;;;;;;9.23;4.80;;;-8.70;99.90;;;;;;2045564;28;20243;-66
2023/12/03 05:17:36;;;;;;;6.00;4.23;;;-8.80;99.90;;;;;;2034152;28;20233;-66